createdAt,value
2022-09-07T00:01:37.021Z,19.47
2022-09-07T00:04:04.095Z,19.43
2022-09-07T00:06:31.059Z,19.41
2022-09-07T00:08:58.608Z,19.38
2022-09-07T00:11:25.150Z,19.36
2022-09-07T00:13:51.646Z,19.31
2022-09-07T00:16:20.539Z,19.30
2022-09-07T00:18:47.214Z,19.27
2022-09-07T00:21:14.885Z,19.24
2022-09-07T00:23:41.562Z,19.22
2022-09-07T00:26:10.263Z,19.20
2022-09-07T00:28:37.362Z,19.20
2022-09-07T00:31:04.372Z,19.20
2022-09-07T00:33:31.247Z,19.19
2022-09-07T00:35:58.553Z,19.20
2022-09-07T00:38:25.167Z,19.18
2022-09-07T00:40:51.782Z,19.18
2022-09-07T00:43:29.051Z,19.14
2022-09-07T00:45:55.595Z,19.14
2022-09-07T00:48:23.836Z,19.14
2022-09-07T00:50:53.804Z,19.13
2022-09-07T00:53:23.016Z,19.14
2022-09-07T00:55:50.795Z,19.15
2022-09-07T00:58:19.198Z,19.12
2022-09-07T01:00:47.001Z,19.14
2022-09-07T01:03:15.978Z,19.13
2022-09-07T01:05:51.892Z,19.13
2022-09-07T01:08:18.600Z,19.12
2022-09-07T01:10:46.824Z,19.07
2022-09-07T01:13:15.130Z,19.05
2022-09-07T01:15:44.674Z,19.04
2022-09-07T01:18:19.769Z,18.99
2022-09-07T01:20:50.804Z,18.99
2022-09-07T01:23:40.344Z,18.96
2022-09-07T01:26:06.832Z,18.94
2022-09-07T01:28:34.385Z,18.94
2022-09-07T01:31:09.531Z,18.91
2022-09-07T01:33:48.016Z,18.88
2022-09-07T01:36:14.468Z,18.84
2022-09-07T01:38:40.946Z,18.83
2022-09-07T01:41:11.508Z,18.80
2022-09-07T01:44:04.613Z,18.78
2022-09-07T01:46:37.368Z,18.77
2022-09-07T01:49:10.329Z,18.77
2022-09-07T01:51:38.882Z,18.74
2022-09-07T01:54:14.535Z,18.72
2022-09-07T01:56:43.615Z,18.71
2022-09-07T01:59:14.783Z,18.70
2022-09-07T02:01:47.039Z,18.69
2022-09-07T02:04:19.440Z,18.65
2022-09-07T02:06:50.992Z,18.60
2022-09-07T02:09:23.534Z,18.56
2022-09-07T02:11:50.427Z,18.50
2022-09-07T02:14:24.921Z,18.46
2022-09-07T02:16:58.470Z,18.45
2022-09-07T02:19:26.912Z,18.41
2022-09-07T02:21:59.371Z,18.39
2022-09-07T02:24:29.036Z,18.33
2022-09-07T02:26:55.984Z,18.30
2022-09-07T02:29:22.513Z,18.25
2022-09-07T02:31:51.232Z,18.18
2022-09-07T02:34:18.310Z,18.13
2022-09-07T02:36:47.035Z,18.12
2022-09-07T02:39:13.587Z,18.07
2022-09-07T02:41:44.285Z,17.99
2022-09-07T02:44:14.128Z,17.91
2022-09-07T02:46:58.722Z,17.86
2022-09-07T02:49:34.300Z,17.78
2022-09-07T02:52:19.540Z,17.75
2022-09-07T02:55:04.505Z,17.69
2022-09-07T02:57:37.566Z,17.62
2022-09-07T03:00:11.102Z,17.59
2022-09-07T03:02:43.400Z,17.54
2022-09-07T03:05:16.761Z,17.56
2022-09-07T03:07:50.101Z,17.56
2022-09-07T03:10:17.633Z,17.54
2022-09-07T03:12:48.931Z,17.53
2022-09-07T03:15:17.048Z,17.50
2022-09-07T03:17:45.285Z,17.50
2022-09-07T03:20:12.358Z,17.48
2022-09-07T03:22:39.194Z,17.48
2022-09-07T03:25:06.038Z,17.48
2022-09-07T03:27:33.088Z,17.45
2022-09-07T03:29:59.966Z,17.42
2022-09-07T03:32:30.377Z,17.41
2022-09-07T03:34:56.881Z,17.40
2022-09-07T03:37:23.370Z,17.32
2022-09-07T03:39:50.012Z,17.27
2022-09-07T03:42:16.574Z,17.22
2022-09-07T03:44:43.050Z,17.15
2022-09-07T03:47:09.606Z,17.15
2022-09-07T03:49:36.094Z,17.10
2022-09-07T03:52:02.887Z,17.10
2022-09-07T03:54:29.430Z,17.02
2022-09-07T03:56:55.943Z,17.00
2022-09-07T03:59:22.524Z,16.97
2022-09-07T04:01:49.563Z,16.94
2022-09-07T04:04:16.113Z,16.92
2022-09-07T04:06:42.682Z,16.94
2022-09-07T04:09:11.921Z,16.93
2022-09-07T04:11:39.196Z,16.93
2022-09-07T04:14:06.085Z,16.95
2022-09-07T04:16:32.683Z,16.97
2022-09-07T04:18:59.527Z,16.99
2022-09-07T04:21:28.259Z,17.04
2022-09-07T04:23:54.868Z,17.10
2022-09-07T04:26:25.840Z,17.14
2022-09-07T04:28:52.642Z,17.16
2022-09-07T04:31:19.518Z,17.17
2022-09-07T04:33:46.767Z,17.17
2022-09-07T04:36:13.345Z,17.22
2022-09-07T04:38:40.154Z,17.23
2022-09-07T04:41:09.436Z,17.24
2022-09-07T04:43:36.374Z,17.31
2022-09-07T04:46:06.608Z,17.32
2022-09-07T04:48:33.295Z,17.38
2022-09-07T04:51:06.280Z,17.41
2022-09-07T04:53:33.704Z,17.45
2022-09-07T04:56:00.271Z,17.53
2022-09-07T04:58:27.085Z,17.59
2022-09-07T05:00:54.103Z,17.67
2022-09-07T05:03:20.969Z,17.76
2022-09-07T05:05:47.455Z,17.82
2022-09-07T05:08:13.991Z,17.89
2022-09-07T05:10:40.505Z,18.00
2022-09-07T05:13:07.060Z,18.05
2022-09-07T05:15:33.805Z,18.11
2022-09-07T05:18:00.294Z,18.21
2022-09-07T05:20:26.919Z,18.28
2022-09-07T05:22:59.823Z,18.32
2022-09-07T05:25:27.741Z,18.41
2022-09-07T05:27:54.327Z,18.50
2022-09-07T05:33:10.659Z,18.60
2022-09-07T05:35:37.277Z,18.72
2022-09-07T05:38:03.796Z,18.78
2022-09-07T05:40:31.812Z,18.89
2022-09-07T05:42:58.555Z,19.02
2022-09-07T05:45:25.143Z,19.02
2022-09-07T05:47:51.629Z,19.13
2022-09-07T05:50:18.171Z,19.29
2022-09-07T05:52:46.125Z,19.36
2022-09-07T05:55:28.996Z,19.47
2022-09-07T05:57:56.265Z,19.55
2022-09-07T06:00:22.843Z,19.62
2022-09-07T06:02:49.467Z,19.80
2022-09-07T06:05:16.133Z,20.03
2022-09-07T06:07:42.659Z,20.10
2022-09-07T06:12:55.768Z,20.24
2022-09-07T06:15:22.447Z,20.41
2022-09-07T06:17:48.928Z,20.45
2022-09-07T06:20:15.510Z,20.68
2022-09-07T06:22:42.053Z,20.78
2022-09-07T06:25:08.790Z,20.89
2022-09-07T06:27:35.527Z,21.13
2022-09-07T06:30:02.198Z,21.25
2022-09-07T06:32:44.582Z,21.62
2022-09-07T06:35:11.636Z,21.86
2022-09-07T06:37:38.433Z,22.06
2022-09-07T06:40:05.518Z,22.13
2022-09-07T06:42:32.132Z,21.79
2022-09-07T06:44:58.963Z,21.90
2022-09-07T06:47:25.477Z,21.85
2022-09-07T06:49:51.973Z,21.78
2022-09-07T06:52:18.511Z,21.81
2022-09-07T06:55:01.053Z,21.94
2022-09-07T06:57:28.109Z,22.27
2022-09-07T06:59:54.681Z,22.55
2022-09-07T07:02:21.197Z,22.57
2022-09-07T07:04:47.919Z,22.74
2022-09-07T07:07:14.565Z,22.74
2022-09-07T07:09:41.757Z,22.82
2022-09-07T07:12:08.525Z,22.72
2022-09-07T07:14:38.415Z,22.66
2022-09-07T07:17:07.825Z,22.64
2022-09-07T07:19:34.382Z,22.66
2022-09-07T07:24:47.801Z,22.75
2022-09-07T07:27:14.353Z,22.72
2022-09-07T07:29:40.854Z,22.71
2022-09-07T07:32:07.403Z,22.79
2022-09-07T07:34:34.182Z,22.63
2022-09-07T07:37:00.801Z,22.68
2022-09-07T07:42:13.866Z,23.14
2022-09-07T07:44:40.361Z,23.29
2022-09-07T07:47:06.980Z,23.33
2022-09-07T07:49:33.834Z,23.36
2022-09-07T07:54:46.928Z,23.91
2022-09-07T07:57:13.890Z,24.09
2022-09-07T07:59:40.457Z,23.92
2022-09-07T08:02:08.909Z,24.02
2022-09-07T08:04:36.063Z,24.08
2022-09-07T08:07:09.155Z,24.12
2022-09-07T08:09:38.109Z,24.48
2022-09-07T08:12:04.591Z,24.48
2022-09-07T08:14:31.144Z,24.48
2022-09-07T08:16:57.715Z,24.53
2022-09-07T08:19:24.173Z,24.81
2022-09-07T08:21:50.632Z,25.00
2022-09-07T08:24:17.090Z,24.79
2022-09-07T08:26:43.591Z,24.71
2022-09-07T08:29:10.041Z,24.90
2022-09-07T08:31:36.936Z,25.03
2022-09-07T08:34:03.470Z,25.05
2022-09-07T08:36:31.901Z,25.54
2022-09-07T08:38:58.516Z,25.57
2022-09-07T08:41:26.614Z,25.68
2022-09-07T08:43:58.022Z,25.87
2022-09-07T08:46:43.320Z,25.60
2022-09-07T08:49:35.908Z,25.34
2022-09-07T08:52:09.959Z,25.01
2022-09-07T08:54:37.105Z,25.21
2022-09-07T08:59:56.209Z,24.96
2022-09-07T09:02:32.645Z,25.01
2022-09-07T09:05:17.418Z,24.99
2022-09-07T09:07:50.390Z,24.98
2022-09-07T09:10:22.914Z,24.92
2022-09-07T09:13:02.886Z,24.97
2022-09-07T09:15:32.827Z,25.01
2022-09-07T09:18:11.190Z,24.85
2022-09-07T09:20:40.808Z,24.64
2022-09-07T09:23:12.432Z,24.55
2022-09-07T09:25:41.647Z,25.43
2022-09-07T09:28:11.818Z,26.30
2022-09-07T09:30:38.346Z,26.32
2022-09-07T09:33:13.892Z,27.05
2022-09-07T09:35:40.662Z,27.73
2022-09-07T09:38:30.377Z,27.69
2022-09-07T09:40:58.197Z,27.86
2022-09-07T09:43:26.167Z,28.13
2022-09-07T09:48:41.730Z,28.64
2022-09-07T09:54:22.418Z,29.83
2022-09-07T09:56:49.756Z,29.77
2022-09-07T10:05:20.205Z,29.77
2022-09-07T10:07:52.019Z,30.45
2022-09-07T10:10:18.553Z,30.17
2022-09-07T10:12:46.165Z,30.43
2022-09-07T10:15:26.678Z,30.03
2022-09-07T10:17:53.318Z,29.37
2022-09-07T10:20:22.385Z,29.91
2022-09-07T10:22:51.777Z,29.81
2022-09-07T10:25:37.996Z,29.69
2022-09-07T10:28:04.425Z,30.02
2022-09-07T10:30:41.643Z,29.84
2022-09-07T10:33:28.572Z,30.21
2022-09-07T10:36:07.152Z,31.03
2022-09-07T10:38:36.947Z,30.59
2022-09-07T10:41:05.911Z,30.40
2022-09-07T10:43:42.086Z,31.19
2022-09-07T10:49:25.179Z,31.27
2022-09-07T10:51:51.593Z,31.67
2022-09-07T10:54:31.233Z,32.21
2022-09-07T10:57:05.774Z,32.92
2022-09-07T11:00:08.640Z,32.92
2022-09-07T11:02:35.561Z,32.94
2022-09-07T11:05:14.006Z,33.21
2022-09-07T11:07:43.328Z,33.54
2022-09-07T11:10:15.533Z,33.71
2022-09-07T11:12:43.740Z,33.33
2022-09-07T11:15:13.400Z,33.45
2022-09-07T11:17:53.301Z,34.44
2022-09-07T11:20:28.640Z,35.61
2022-09-07T11:23:13.915Z,36.11
2022-09-07T11:25:58.570Z,34.99
2022-09-07T11:28:25.049Z,33.90
2022-09-07T11:31:00.062Z,33.61
2022-09-07T11:33:31.326Z,33.39
2022-09-07T11:36:02.801Z,33.08
2022-09-07T11:38:34.605Z,33.32
2022-09-07T11:41:12.593Z,33.04
2022-09-07T11:43:42.698Z,32.46
2022-09-07T11:46:19.645Z,32.61
2022-09-07T11:48:50.437Z,32.69
2022-09-07T11:51:23.611Z,32.76
2022-09-07T11:53:56.595Z,32.14
2022-09-07T11:56:45.803Z,32.41
2022-09-07T11:59:12.368Z,33.06
2022-09-07T12:01:57.505Z,33.35
2022-09-07T12:04:30.229Z,33.27
2022-09-07T12:07:15.238Z,33.88
2022-09-07T12:09:44.607Z,34.86
2022-09-07T12:12:24.634Z,35.19
2022-09-07T12:14:59.986Z,33.59
2022-09-07T12:17:45.429Z,33.63
2022-09-07T12:20:14.202Z,34.57
2022-09-07T12:23:04.811Z,35.50
2022-09-07T12:25:33.444Z,35.85
2022-09-07T12:28:00.082Z,36.37
2022-09-07T12:30:26.521Z,37.12
2022-09-07T12:32:55.220Z,37.50
2022-09-07T12:35:31.896Z,36.70
2022-09-07T12:38:02.376Z,36.80
2022-09-07T12:40:28.979Z,36.26
2022-09-07T12:43:13.802Z,36.06
2022-09-07T12:45:40.308Z,36.20
2022-09-07T12:48:29.827Z,36.81
2022-09-07T12:50:56.234Z,36.95
2022-09-07T12:53:41.421Z,37.37
2022-09-07T12:56:17.068Z,37.49
2022-09-07T12:58:51.442Z,37.32
2022-09-07T13:01:30.628Z,36.16
2022-09-07T13:04:06.039Z,35.60
2022-09-07T13:09:30.338Z,35.18
2022-09-07T13:11:57.382Z,35.91
2022-09-07T13:14:27.826Z,36.07
2022-09-07T13:17:16.398Z,36.55
2022-09-07T13:19:45.940Z,36.72
2022-09-07T13:22:27.755Z,36.58
2022-09-07T13:24:55.353Z,36.28
2022-09-07T13:27:22.651Z,36.30
2022-09-07T13:30:07.756Z,36.18
2022-09-07T13:35:22.926Z,36.26
2022-09-07T13:37:52.130Z,35.91
2022-09-07T13:40:21.507Z,35.11
2022-09-07T13:42:48.992Z,34.06
2022-09-07T13:45:34.398Z,34.49
2022-09-07T13:48:06.684Z,34.38
2022-09-07T13:50:33.167Z,35.02
2022-09-07T13:53:18.347Z,36.08
2022-09-07T13:55:50.841Z,34.53
2022-09-07T13:58:37.895Z,33.42
2022-09-07T14:01:13.399Z,33.88
2022-09-07T14:03:45.872Z,33.99
2022-09-07T14:06:21.183Z,33.63
2022-09-07T14:08:52.103Z,33.55
2022-09-07T14:11:19.571Z,33.54
2022-09-07T14:13:46.162Z,33.71
2022-09-07T14:16:12.705Z,34.16
2022-09-07T14:18:39.636Z,34.85
2022-09-07T14:21:09.205Z,34.93
2022-09-07T14:23:36.788Z,35.45
2022-09-07T14:26:23.102Z,35.93
2022-09-07T14:28:51.748Z,36.09
2022-09-07T14:31:20.013Z,36.50
2022-09-07T14:34:00.023Z,36.94
2022-09-07T14:36:47.202Z,37.56
2022-09-07T14:39:15.673Z,37.60
2022-09-07T14:41:43.155Z,36.96
2022-09-07T14:44:28.480Z,36.15
2022-09-07T14:46:57.093Z,35.53
2022-09-07T14:49:24.212Z,34.75
2022-09-07T14:51:52.269Z,34.28
2022-09-07T14:54:20.905Z,34.13
2022-09-07T14:57:06.393Z,34.24
2022-09-07T14:59:38.787Z,34.90
2022-09-07T15:02:32.203Z,33.96
2022-09-07T15:05:17.992Z,32.91
2022-09-07T15:07:48.844Z,33.42
2022-09-07T15:10:21.069Z,33.71
2022-09-07T15:12:52.043Z,33.81
2022-09-07T15:15:18.565Z,33.18
2022-09-07T15:17:45.909Z,33.90
2022-09-07T15:20:48.015Z,34.76
2022-09-07T15:23:17.718Z,33.96
2022-09-07T15:25:50.502Z,34.11
2022-09-07T15:34:01.869Z,34.29
2022-09-07T15:36:28.822Z,34.78
2022-09-07T15:39:03.383Z,34.67
2022-09-07T15:41:30.228Z,34.90
2022-09-07T15:43:57.102Z,34.41
2022-09-07T15:46:25.109Z,34.05
2022-09-07T15:48:55.097Z,34.26
2022-09-07T15:54:13.798Z,33.87
2022-09-07T15:56:42.392Z,34.05
2022-09-07T15:59:10.023Z,33.80
2022-09-07T16:01:52.562Z,34.32
2022-09-07T16:04:19.807Z,34.73
2022-09-07T16:06:48.121Z,34.35
2022-09-07T16:09:15.526Z,34.55
2022-09-07T16:11:41.979Z,34.37
2022-09-07T16:14:11.795Z,34.45
2022-09-07T16:19:24.715Z,33.89
2022-09-07T16:21:51.187Z,33.52
2022-09-07T16:24:17.620Z,33.22
2022-09-07T16:26:44.084Z,33.27
2022-09-07T16:29:10.568Z,32.92
2022-09-07T16:31:37.594Z,32.79
2022-09-07T16:34:04.345Z,32.76
2022-09-07T16:36:31.060Z,32.54
2022-09-07T16:38:59.260Z,32.14
2022-09-07T16:41:29.653Z,31.85
2022-09-07T16:43:56.475Z,31.78
2022-09-07T16:46:23.998Z,31.39
2022-09-07T16:48:51.264Z,30.92
2022-09-07T16:51:20.537Z,30.51
2022-09-07T16:53:47.561Z,29.93
2022-09-07T16:56:16.672Z,29.48
2022-09-07T16:58:45.027Z,29.10
2022-09-07T17:01:13.308Z,28.77
2022-09-07T17:03:40.143Z,28.49
2022-09-07T17:06:07.756Z,28.24
2022-09-07T17:08:34.856Z,28.04
2022-09-07T17:11:04.052Z,27.89
2022-09-07T17:13:30.938Z,27.68
2022-09-07T17:16:04.140Z,27.52
2022-09-07T17:21:17.864Z,27.20
2022-09-07T17:23:51.910Z,27.06
2022-09-07T17:26:22.624Z,26.94
2022-09-07T17:28:50.810Z,26.81
2022-09-07T17:34:10.242Z,26.53
2022-09-07T17:36:36.751Z,26.42
2022-09-07T17:39:19.510Z,26.33
2022-09-07T17:41:47.695Z,26.24
2022-09-07T17:44:14.299Z,26.13
2022-09-07T17:46:40.753Z,26.05
2022-09-07T17:49:08.819Z,25.96
2022-09-07T17:51:35.742Z,25.83
2022-09-07T17:54:03.305Z,25.78
2022-09-07T17:56:31.087Z,25.72
2022-09-07T18:00:10.709Z,25.60
2022-09-07T18:01:44.893Z,25.51
2022-09-07T18:04:11.466Z,25.43
2022-09-07T18:06:37.974Z,25.39
2022-09-07T18:09:05.014Z,25.33
2022-09-07T18:11:48.774Z,25.25
2022-09-07T18:14:16.336Z,25.20
2022-09-07T18:16:44.071Z,25.16
2022-09-07T18:19:11.146Z,25.11
2022-09-07T18:21:38.115Z,25.06
2022-09-07T18:24:07.152Z,25.04
2022-09-07T18:26:34.941Z,25.00
2022-09-07T18:29:08.450Z,24.96
2022-09-07T18:31:40.253Z,24.88
2022-09-07T18:34:07.723Z,24.81
2022-09-07T18:36:35.793Z,24.76
2022-09-07T18:39:04.693Z,24.73
2022-09-07T18:41:31.590Z,24.72
2022-09-07T18:43:58.554Z,24.73
2022-09-07T18:46:25.550Z,24.71
2022-09-07T18:48:53.953Z,24.69
2022-09-07T18:51:20.929Z,24.68
2022-09-07T18:53:47.931Z,24.66
2022-09-07T18:56:15.524Z,24.64
2022-09-07T18:58:42.229Z,24.63
2022-09-07T19:01:11.418Z,24.60
2022-09-07T19:03:38.728Z,24.54
2022-09-07T19:06:09.658Z,24.50
2022-09-07T19:08:37.526Z,24.41
2022-09-07T19:11:07.856Z,24.36
2022-09-07T19:13:34.864Z,24.27
2022-09-07T19:16:05.036Z,24.17
2022-09-07T19:18:31.764Z,24.11
2022-09-07T19:21:08.237Z,24.05
2022-09-07T19:23:35.072Z,23.93
2022-09-07T19:26:04.327Z,23.90
2022-09-07T19:28:31.110Z,23.85
2022-09-07T19:31:17.601Z,23.81
2022-09-07T19:33:44.132Z,23.74
2022-09-07T19:36:10.959Z,23.66
2022-09-07T19:38:37.649Z,23.60
2022-09-07T19:41:04.163Z,23.50
2022-09-07T19:43:34.541Z,23.48
2022-09-07T19:46:01.395Z,23.41
2022-09-07T19:48:28.076Z,23.39
2022-09-07T19:51:00.044Z,23.31
2022-09-07T19:53:26.628Z,23.25
2022-09-07T19:55:53.108Z,23.20
2022-09-07T19:58:19.659Z,23.14
2022-09-07T20:00:46.155Z,23.10
2022-09-07T20:03:12.685Z,23.01
2022-09-07T20:05:42.025Z,22.94
2022-09-07T20:08:08.844Z,22.88
2022-09-07T20:10:36.133Z,22.76
2022-09-07T20:13:02.830Z,22.74
2022-09-07T20:15:29.315Z,22.70
2022-09-07T20:17:55.774Z,22.66
2022-09-07T20:20:22.374Z,22.62
2022-09-07T20:22:48.841Z,22.56
2022-09-07T20:25:15.338Z,22.48
2022-09-07T20:27:42.093Z,22.38
2022-09-07T20:30:08.806Z,22.29
2022-09-07T20:32:35.290Z,22.26
2022-09-07T20:35:01.805Z,22.20
2022-09-07T20:37:28.328Z,22.16
2022-09-07T20:39:54.860Z,22.11
2022-09-07T20:42:21.322Z,22.04
2022-09-07T20:44:47.817Z,22.02
2022-09-07T20:47:14.269Z,22.00
2022-09-07T20:49:40.772Z,21.99
2022-09-07T20:52:07.264Z,21.95
2022-09-07T20:54:33.980Z,21.91
2022-09-07T20:57:03.876Z,21.87
2022-09-07T20:59:30.929Z,21.83
2022-09-07T21:01:57.469Z,21.79
2022-09-07T21:04:26.407Z,21.73
2022-09-07T21:06:53.121Z,21.68
2022-09-07T21:09:20.154Z,21.60
2022-09-07T21:11:49.392Z,21.57
2022-09-07T21:14:17.849Z,21.54
2022-09-07T21:16:44.485Z,21.52
2022-09-07T21:19:11.214Z,21.51
2022-09-07T21:21:39.398Z,21.51
2022-09-07T21:24:06.728Z,21.55
2022-09-07T21:26:33.200Z,21.58
2022-09-07T21:29:01.015Z,21.65
2022-09-07T21:31:28.289Z,21.69
2022-09-07T21:33:56.167Z,21.69
2022-09-07T21:36:23.042Z,21.71
2022-09-07T21:38:50.100Z,21.71
2022-09-07T21:41:17.539Z,21.72
2022-09-07T21:43:44.392Z,21.71
2022-09-07T21:46:12.239Z,21.69
2022-09-07T21:48:38.863Z,21.70
2022-09-07T21:51:05.628Z,21.69
2022-09-07T21:53:32.140Z,21.67
2022-09-07T21:55:59.705Z,21.69
2022-09-07T21:58:27.185Z,21.70
2022-09-07T22:00:53.856Z,21.68
2022-09-07T22:03:21.064Z,21.67
2022-09-07T22:05:47.599Z,21.65
2022-09-07T22:08:14.516Z,21.64
2022-09-07T22:10:41.622Z,21.62
2022-09-07T22:13:08.541Z,21.62
2022-09-07T22:15:37.672Z,21.62
2022-09-07T22:18:04.794Z,21.60
2022-09-07T22:20:32.238Z,21.62
2022-09-07T22:22:59.185Z,21.60
2022-09-07T22:25:26.548Z,21.56
2022-09-07T22:27:53.332Z,21.55
2022-09-07T22:30:20.136Z,21.54
2022-09-07T22:32:47.704Z,21.56
2022-09-07T22:35:14.503Z,21.55
2022-09-07T22:37:40.960Z,21.50
2022-09-07T22:40:07.976Z,21.51
2022-09-07T22:42:34.475Z,21.48
2022-09-07T22:45:00.955Z,21.47
2022-09-07T22:47:27.432Z,21.46
2022-09-07T22:49:54.025Z,21.44
2022-09-07T22:52:20.487Z,21.42
2022-09-07T22:54:46.990Z,21.42
2022-09-07T22:57:13.532Z,21.38
2022-09-07T22:59:40.039Z,21.36
2022-09-07T23:02:06.828Z,21.37
2022-09-07T23:04:33.355Z,21.39
2022-09-07T23:06:59.929Z,21.37
2022-09-07T23:09:26.691Z,21.37
2022-09-07T23:11:53.182Z,21.37
2022-09-07T23:14:21.871Z,21.33
2022-09-07T23:16:48.796Z,21.32
2022-09-07T23:19:16.559Z,21.29
2022-09-07T23:21:43.735Z,21.29
2022-09-07T23:24:12.249Z,21.27
2022-09-07T23:26:38.742Z,21.24
2022-09-07T23:29:06.102Z,21.24
2022-09-07T23:31:33.634Z,21.22
2022-09-07T23:34:01.088Z,21.24
2022-09-07T23:36:27.712Z,21.20
2022-09-07T23:38:54.944Z,21.17
2022-09-07T23:41:21.958Z,21.15
2022-09-07T23:43:48.487Z,21.13
2022-09-07T23:46:15.474Z,21.13
2022-09-07T23:48:45.094Z,21.14
2022-09-07T23:51:11.987Z,21.15
2022-09-07T23:53:38.787Z,21.13
2022-09-07T23:56:05.443Z,21.12
2022-09-07T23:58:31.896Z,21.09
